createdAt,value
2022-10-31T00:00:56.157Z,15.07
2022-10-31T00:03:23.794Z,14.93
2022-10-31T00:05:51.387Z,14.83
2022-10-31T00:08:18.995Z,14.74
2022-10-31T00:10:46.633Z,14.67
2022-10-31T00:13:15.191Z,14.63
2022-10-31T00:15:42.842Z,14.61
2022-10-31T00:18:10.407Z,14.61
2022-10-31T00:20:38.002Z,14.59
2022-10-31T00:23:05.584Z,14.59
2022-10-31T00:25:33.174Z,14.58
2022-10-31T00:28:01.078Z,14.58
2022-10-31T00:30:28.998Z,14.58
2022-10-31T00:32:57.279Z,14.55
2022-10-31T00:35:25.211Z,14.54
2022-10-31T00:37:53.097Z,14.54
2022-10-31T00:40:20.659Z,14.53
2022-10-31T00:42:48.222Z,14.52
2022-10-31T00:45:15.822Z,14.53
2022-10-31T00:47:43.463Z,14.53
2022-10-31T00:50:11.678Z,14.54
2022-10-31T00:52:39.320Z,14.54
2022-10-31T00:55:07.216Z,14.55
2022-10-31T00:57:34.852Z,14.59
2022-10-31T01:00:02.463Z,14.63
2022-10-31T01:02:30.686Z,14.64
2022-10-31T01:04:58.343Z,14.62
2022-10-31T01:07:25.889Z,14.57
2022-10-31T01:09:53.432Z,14.50
2022-10-31T01:12:21.074Z,14.42
2022-10-31T01:14:48.989Z,14.36
2022-10-31T01:17:16.983Z,14.33
2022-10-31T01:19:44.635Z,14.31
2022-10-31T01:22:12.284Z,14.29
2022-10-31T01:24:39.847Z,14.29
2022-10-31T01:27:08.041Z,14.29
2022-10-31T01:29:35.574Z,14.31
2022-10-31T01:32:03.159Z,14.32
2022-10-31T01:34:30.784Z,14.34
2022-10-31T01:36:58.341Z,14.35
2022-10-31T01:39:26.489Z,14.35
2022-10-31T01:41:54.086Z,14.35
2022-10-31T01:44:21.712Z,14.34
2022-10-31T01:46:49.264Z,14.34
2022-10-31T01:49:16.840Z,14.34
2022-10-31T01:51:44.718Z,14.33
2022-10-31T01:54:12.295Z,14.34
2022-10-31T01:56:39.901Z,14.38
2022-10-31T01:59:07.837Z,14.40
2022-10-31T02:01:35.470Z,14.42
2022-10-31T02:04:03.761Z,14.47
2022-10-31T02:06:31.316Z,14.51
2022-10-31T02:08:58.869Z,14.53
2022-10-31T02:11:26.427Z,14.54
2022-10-31T02:13:53.977Z,14.57
2022-10-31T02:16:22.156Z,14.60
2022-10-31T02:18:49.763Z,14.64
2022-10-31T02:21:17.926Z,14.68
2022-10-31T02:23:47.965Z,14.69
2022-10-31T02:26:17.950Z,14.66
2022-10-31T02:28:46.058Z,14.61
2022-10-31T02:31:13.618Z,14.55
2022-10-31T02:33:41.217Z,14.49
2022-10-31T02:36:08.763Z,14.42
2022-10-31T02:38:36.315Z,14.32
2022-10-31T02:41:04.063Z,14.21
2022-10-31T02:43:31.605Z,14.10
2022-10-31T02:45:59.133Z,13.96
2022-10-31T02:48:26.725Z,13.85
2022-10-31T02:50:54.273Z,13.74
2022-10-31T02:53:22.003Z,13.65
2022-10-31T02:55:49.614Z,13.57
2022-10-31T02:58:17.174Z,13.48
2022-10-31T03:00:47.018Z,13.42
2022-10-31T03:03:17.732Z,13.35
2022-10-31T03:05:51.454Z,13.30
2022-10-31T03:08:19.059Z,13.25
2022-10-31T03:10:46.587Z,13.21
2022-10-31T03:13:14.177Z,13.16
2022-10-31T03:15:41.783Z,13.13
2022-10-31T03:18:09.664Z,13.11
2022-10-31T03:20:37.160Z,13.09
2022-10-31T03:23:04.732Z,13.08
2022-10-31T03:25:32.585Z,13.06
2022-10-31T03:28:00.604Z,13.02
2022-10-31T03:30:28.822Z,12.98
2022-10-31T03:32:56.454Z,12.96
2022-10-31T03:35:24.048Z,12.93
2022-10-31T03:37:51.629Z,12.91
2022-10-31T03:40:19.164Z,12.88
2022-10-31T03:42:47.332Z,12.86
2022-10-31T03:45:14.894Z,12.85
2022-10-31T03:47:42.783Z,12.83
2022-10-31T03:50:10.321Z,12.83
2022-10-31T03:52:37.876Z,12.84
2022-10-31T03:55:05.435Z,12.85
2022-10-31T03:57:32.950Z,12.89
2022-10-31T04:00:00.485Z,12.94
2022-10-31T04:02:28.076Z,12.99
2022-10-31T04:04:55.660Z,13.06
2022-10-31T04:07:23.761Z,13.11
2022-10-31T04:09:51.309Z,13.13
2022-10-31T04:12:18.836Z,13.20
2022-10-31T04:14:46.638Z,13.25
2022-10-31T04:17:14.168Z,13.29
2022-10-31T04:19:41.868Z,13.32
2022-10-31T04:22:09.451Z,13.35
2022-10-31T04:24:36.980Z,13.36
2022-10-31T04:27:04.517Z,13.38
2022-10-31T04:29:32.096Z,13.41
2022-10-31T04:32:01.890Z,13.36
2022-10-31T04:34:29.463Z,13.29
2022-10-31T04:36:56.995Z,13.23
2022-10-31T04:39:26.782Z,13.15
2022-10-31T04:41:54.422Z,13.05
2022-10-31T04:44:22.220Z,12.95
2022-10-31T04:46:49.741Z,12.87
2022-10-31T04:49:17.252Z,12.80
2022-10-31T04:51:44.797Z,12.75
2022-10-31T04:54:12.736Z,12.72
2022-10-31T04:56:40.975Z,12.71
2022-10-31T04:59:08.565Z,12.68
2022-10-31T05:01:36.279Z,12.65
2022-10-31T05:04:04.002Z,12.63
2022-10-31T05:06:31.583Z,12.61
2022-10-31T05:08:59.469Z,12.59
2022-10-31T05:11:27.021Z,12.58
2022-10-31T05:13:54.593Z,12.55
2022-10-31T05:16:22.515Z,12.52
2022-10-31T05:18:50.074Z,12.50
2022-10-31T05:21:18.137Z,12.48
2022-10-31T05:23:47.646Z,12.46
2022-10-31T05:26:16.151Z,12.43
2022-10-31T05:28:43.696Z,12.38
2022-10-31T05:31:11.229Z,12.34
2022-10-31T05:33:39.348Z,12.32
2022-10-31T05:36:06.937Z,12.31
2022-10-31T05:38:34.455Z,12.29
2022-10-31T05:41:02.168Z,12.28
2022-10-31T05:43:29.778Z,12.27
2022-10-31T05:45:57.482Z,12.24
2022-10-31T05:48:25.033Z,12.22
2022-10-31T05:50:53.229Z,12.22
2022-10-31T05:53:20.778Z,12.22
2022-10-31T05:55:48.318Z,12.20
2022-10-31T05:58:17.862Z,12.20
2022-10-31T06:00:45.396Z,12.20
2022-10-31T06:03:12.943Z,12.20
2022-10-31T06:05:40.548Z,12.19
2022-10-31T06:08:08.088Z,12.18
2022-10-31T06:10:36.280Z,12.17
2022-10-31T06:13:03.861Z,12.15
2022-10-31T06:15:31.446Z,12.12
2022-10-31T06:17:59.197Z,12.11
2022-10-31T06:20:27.333Z,12.11
2022-10-31T06:22:55.022Z,12.09
2022-10-31T06:25:22.593Z,12.06
2022-10-31T06:27:50.261Z,12.04
2022-10-31T06:30:17.844Z,12.04
2022-10-31T06:32:45.414Z,12.02
2022-10-31T06:35:13.240Z,12.02
2022-10-31T06:37:40.824Z,12.00
2022-10-31T06:40:08.377Z,12.01
2022-10-31T06:42:35.987Z,12.04
2022-10-31T06:45:03.547Z,12.07
2022-10-31T06:47:31.206Z,12.11
2022-10-31T06:49:58.841Z,12.16
2022-10-31T06:52:26.405Z,12.17
2022-10-31T06:54:53.973Z,12.18
2022-10-31T06:57:21.635Z,12.17
2022-10-31T06:59:49.813Z,12.17
2022-10-31T07:02:17.797Z,12.20
2022-10-31T07:04:45.465Z,12.23
2022-10-31T07:07:13.053Z,12.28
2022-10-31T07:09:40.881Z,12.34
2022-10-31T07:12:08.920Z,12.41
2022-10-31T07:14:36.557Z,12.48
2022-10-31T07:17:04.186Z,12.53
2022-10-31T07:19:31.782Z,12.55
2022-10-31T07:21:59.355Z,12.59
2022-10-31T07:24:28.193Z,12.62
2022-10-31T07:26:55.826Z,12.65
2022-10-31T07:29:23.564Z,12.68
2022-10-31T07:31:51.155Z,12.73
2022-10-31T07:34:18.861Z,12.78
2022-10-31T07:36:47.003Z,12.83
2022-10-31T07:39:14.739Z,12.88
2022-10-31T07:41:42.988Z,12.94
2022-10-31T07:44:10.681Z,13.01
2022-10-31T07:46:38.673Z,13.08
2022-10-31T07:49:07.025Z,13.17
2022-10-31T07:51:34.658Z,13.24
2022-10-31T07:54:02.371Z,13.30
2022-10-31T07:56:30.068Z,13.36
2022-10-31T07:58:57.753Z,13.43
2022-10-31T08:01:25.929Z,13.50
2022-10-31T08:03:53.680Z,13.56
2022-10-31T08:06:21.296Z,13.63
2022-10-31T08:08:48.891Z,13.70
2022-10-31T08:11:16.556Z,13.75
2022-10-31T08:13:45.185Z,13.80
2022-10-31T08:16:12.934Z,13.87
2022-10-31T08:18:40.703Z,13.92
2022-10-31T08:21:08.361Z,13.96
2022-10-31T08:23:35.988Z,14.01
2022-10-31T08:26:04.311Z,14.06
2022-10-31T08:28:32.427Z,14.12
2022-10-31T08:31:00.212Z,14.19
2022-10-31T08:33:27.949Z,14.21
2022-10-31T08:35:55.559Z,14.23
2022-10-31T08:38:23.867Z,14.26
2022-10-31T08:40:51.717Z,14.33
2022-10-31T08:43:19.400Z,14.39
2022-10-31T08:45:47.276Z,14.46
2022-10-31T08:48:15.183Z,14.53
2022-10-31T08:50:44.948Z,14.56
2022-10-31T08:53:12.786Z,14.62
2022-10-31T08:55:40.706Z,14.71
2022-10-31T08:58:08.503Z,14.77
2022-10-31T09:00:36.313Z,14.85
2022-10-31T09:03:04.788Z,14.91
2022-10-31T09:05:32.544Z,14.99
2022-10-31T09:08:00.705Z,15.05
2022-10-31T09:10:28.754Z,15.13
2022-10-31T09:12:56.765Z,15.18
2022-10-31T09:15:25.215Z,15.24
2022-10-31T09:17:53.066Z,15.29
2022-10-31T09:20:20.753Z,15.36
2022-10-31T09:22:48.471Z,15.40
2022-10-31T09:25:16.254Z,15.44
2022-10-31T09:27:44.409Z,15.50
2022-10-31T09:30:12.130Z,15.56
2022-10-31T09:32:40.047Z,15.64
2022-10-31T09:35:08.139Z,15.71
2022-10-31T09:37:36.038Z,15.79
2022-10-31T09:40:04.430Z,15.88
2022-10-31T09:42:37.401Z,15.97
2022-10-31T09:45:05.176Z,16.08
2022-10-31T09:47:32.904Z,16.20
2022-10-31T09:50:00.672Z,16.38
2022-10-31T09:52:28.937Z,16.57
2022-10-31T09:54:56.683Z,16.83
2022-10-31T09:57:24.643Z,17.15
2022-10-31T09:59:52.440Z,17.51
2022-10-31T10:02:20.128Z,17.90
2022-10-31T10:04:48.624Z,18.24
2022-10-31T10:07:16.417Z,18.58
2022-10-31T10:09:44.141Z,18.81
2022-10-31T10:12:11.960Z,18.95
2022-10-31T10:14:39.929Z,19.09
2022-10-31T10:17:08.026Z,19.17
2022-10-31T10:19:36.034Z,19.27
2022-10-31T10:22:03.807Z,19.30
2022-10-31T10:24:31.575Z,19.24
2022-10-31T10:26:59.272Z,19.13
2022-10-31T10:29:27.557Z,19.02
2022-10-31T10:31:55.369Z,18.93
2022-10-31T10:34:23.143Z,18.83
2022-10-31T10:36:50.915Z,18.75
2022-10-31T10:39:18.718Z,18.65
2022-10-31T10:41:47.082Z,18.58
2022-10-31T10:44:16.885Z,18.56
2022-10-31T10:47:01.995Z,18.56
2022-10-31T10:49:29.769Z,18.56
2022-10-31T10:52:13.149Z,18.58
2022-10-31T10:54:45.493Z,18.61
2022-10-31T10:57:13.453Z,18.71
2022-10-31T10:59:41.256Z,18.89
2022-10-31T11:02:09.643Z,19.07
2022-10-31T11:04:37.486Z,19.28
2022-10-31T11:07:05.260Z,19.48
2022-10-31T11:09:33.121Z,19.69
2022-10-31T11:12:00.951Z,19.81
2022-10-31T11:14:28.738Z,19.87
2022-10-31T11:16:56.517Z,19.89
2022-10-31T11:19:24.672Z,19.89
2022-10-31T11:21:54.319Z,19.87
2022-10-31T11:24:22.594Z,19.85
2022-10-31T11:26:50.753Z,19.86
2022-10-31T11:29:18.485Z,19.89
2022-10-31T11:31:46.222Z,19.90
2022-10-31T11:34:13.969Z,19.91
2022-10-31T11:36:41.691Z,19.97
2022-10-31T11:39:10.015Z,20.02
2022-10-31T11:41:39.600Z,20.04
2022-10-31T11:44:07.389Z,20.07
2022-10-31T11:46:35.516Z,20.06
2022-10-31T11:49:03.348Z,20.07
2022-10-31T11:51:31.320Z,20.05
2022-10-31T11:54:02.644Z,20.00
2022-10-31T11:56:31.042Z,19.99
2022-10-31T11:58:58.899Z,20.02
2022-10-31T12:01:27.984Z,20.09
2022-10-31T12:03:56.399Z,20.17
2022-10-31T12:06:24.229Z,20.28
2022-10-31T12:08:52.116Z,20.40
2022-10-31T12:11:20.060Z,20.54
2022-10-31T12:13:48.783Z,20.71
2022-10-31T12:16:17.095Z,20.90
2022-10-31T12:18:44.953Z,21.07
2022-10-31T12:21:12.974Z,21.25
2022-10-31T12:23:41.040Z,21.39
2022-10-31T12:26:09.558Z,21.51
2022-10-31T12:28:41.365Z,21.61
2022-10-31T12:31:12.928Z,21.71
2022-10-31T12:33:40.802Z,21.78
2022-10-31T12:36:11.059Z,21.83
2022-10-31T12:38:44.079Z,21.88
2022-10-31T12:41:11.972Z,21.95
2022-10-31T12:43:39.904Z,21.98
2022-10-31T12:46:07.717Z,22.01
2022-10-31T12:48:35.585Z,22.03
2022-10-31T12:51:04.218Z,22.04
2022-10-31T12:53:31.963Z,22.05
2022-10-31T12:55:59.837Z,22.04
2022-10-31T12:58:27.752Z,21.99
2022-10-31T13:00:55.904Z,21.95
2022-10-31T13:03:24.369Z,21.91
2022-10-31T13:05:52.165Z,21.90
2022-10-31T13:08:20.084Z,21.90
2022-10-31T13:10:47.880Z,21.86
2022-10-31T13:13:15.673Z,21.86
2022-10-31T13:15:44.348Z,21.84
2022-10-31T13:18:12.175Z,21.83
2022-10-31T13:20:39.912Z,21.83
2022-10-31T13:23:23.394Z,21.81
2022-10-31T13:25:52.402Z,21.79
2022-10-31T13:28:20.222Z,21.78
2022-10-31T13:30:48.605Z,21.78
2022-10-31T13:33:16.339Z,21.82
2022-10-31T13:35:44.242Z,21.83
2022-10-31T13:38:12.565Z,21.81
2022-10-31T13:40:40.558Z,21.74
2022-10-31T13:43:08.376Z,21.68
2022-10-31T13:45:36.133Z,21.62
2022-10-31T13:48:04.349Z,21.57
2022-10-31T13:50:33.404Z,21.48
2022-10-31T13:53:01.471Z,21.43
2022-10-31T13:55:29.208Z,21.33
2022-10-31T13:57:57.080Z,21.23
2022-10-31T14:00:24.865Z,21.12
2022-10-31T14:02:54.706Z,20.99
2022-10-31T14:05:22.601Z,20.89
2022-10-31T14:07:50.455Z,20.80
2022-10-31T14:10:18.469Z,20.71
2022-10-31T14:12:46.370Z,20.61
2022-10-31T14:15:17.878Z,20.55
2022-10-31T14:17:45.813Z,20.47
2022-10-31T14:20:13.748Z,20.40
2022-10-31T14:22:42.829Z,20.37
2022-10-31T14:25:11.035Z,20.34
2022-10-31T14:27:39.517Z,20.35
2022-10-31T14:30:07.296Z,20.40
2022-10-31T14:32:36.724Z,20.51
2022-10-31T14:35:04.746Z,20.62
2022-10-31T14:37:32.583Z,20.74
2022-10-31T14:40:01.780Z,20.88
2022-10-31T14:42:29.809Z,20.98
2022-10-31T14:44:57.619Z,21.01
2022-10-31T14:47:25.482Z,20.96
2022-10-31T14:49:53.416Z,20.86
2022-10-31T14:52:22.754Z,20.74
2022-10-31T14:54:50.698Z,20.64
2022-10-31T14:57:18.578Z,20.52
2022-10-31T14:59:46.422Z,20.40
2022-10-31T15:02:14.398Z,20.27
2022-10-31T15:04:42.802Z,20.14
2022-10-31T15:07:10.621Z,20.01
2022-10-31T15:09:38.875Z,19.89
2022-10-31T15:12:06.799Z,19.79
2022-10-31T15:14:34.666Z,19.70
2022-10-31T15:17:03.394Z,19.62
2022-10-31T15:19:31.620Z,19.55
2022-10-31T15:21:59.429Z,19.47
2022-10-31T15:24:27.318Z,19.39
2022-10-31T15:26:55.292Z,19.33
2022-10-31T15:29:25.127Z,19.26
2022-10-31T15:31:53.103Z,19.21
2022-10-31T15:34:20.942Z,19.15
2022-10-31T15:36:48.697Z,19.08
2022-10-31T15:39:16.971Z,19.01
2022-10-31T15:41:46.568Z,18.95
2022-10-31T15:44:17.011Z,18.90
2022-10-31T15:46:44.835Z,18.82
2022-10-31T15:49:12.821Z,18.79
2022-10-31T15:51:40.562Z,18.74
2022-10-31T15:54:08.921Z,18.68
2022-10-31T15:56:36.864Z,18.63
2022-10-31T15:59:04.925Z,18.57
2022-10-31T16:01:32.964Z,18.54
2022-10-31T16:04:01.530Z,18.51
2022-10-31T16:06:30.851Z,18.46
2022-10-31T16:08:58.529Z,18.44
2022-10-31T16:11:26.484Z,18.39
2022-10-31T16:13:54.361Z,18.37
2022-10-31T16:16:35.218Z,18.35
2022-10-31T16:19:05.857Z,18.29
2022-10-31T16:21:33.579Z,18.25
2022-10-31T16:24:05.802Z,18.20
2022-10-31T16:26:34.388Z,18.14
2022-10-31T16:29:05.383Z,18.07
2022-10-31T16:31:35.770Z,17.98
2022-10-31T16:34:03.652Z,17.93
2022-10-31T16:36:35.944Z,17.92
2022-10-31T16:39:04.279Z,17.92
2022-10-31T16:41:31.990Z,17.89
2022-10-31T16:44:00.848Z,17.85
2022-10-31T16:46:28.821Z,17.77
2022-10-31T16:48:56.559Z,17.78
2022-10-31T16:51:24.301Z,17.79
2022-10-31T16:53:52.078Z,17.80
2022-10-31T16:56:20.189Z,17.81
2022-10-31T16:58:47.922Z,17.82
2022-10-31T17:01:15.861Z,17.83
2022-10-31T17:03:43.774Z,17.88
2022-10-31T17:06:11.971Z,17.91
2022-10-31T17:08:43.412Z,17.93
2022-10-31T17:11:11.138Z,17.89
2022-10-31T17:13:39.064Z,17.92
2022-10-31T17:16:06.828Z,17.93
2022-10-31T17:18:34.660Z,17.94
2022-10-31T17:21:05.117Z,17.97
2022-10-31T17:23:33.560Z,17.99
2022-10-31T17:26:01.368Z,18.02
2022-10-31T17:28:29.670Z,18.00
2022-10-31T17:30:59.571Z,18.01
2022-10-31T17:33:30.594Z,18.02
2022-10-31T17:35:58.391Z,18.00
2022-10-31T17:38:26.269Z,18.04
2022-10-31T17:40:54.138Z,18.07
2022-10-31T17:43:22.117Z,18.05
2022-10-31T17:45:50.341Z,18.04
2022-10-31T17:48:18.424Z,18.05
2022-10-31T17:50:46.688Z,18.06
2022-10-31T17:53:14.666Z,18.06
2022-10-31T17:55:42.501Z,18.06
2022-10-31T17:58:14.614Z,18.06
2022-10-31T18:00:45.823Z,18.06
2022-10-31T18:03:16.649Z,18.04
2022-10-31T18:05:44.429Z,18.02
2022-10-31T18:08:12.274Z,18.00
2022-10-31T18:10:40.313Z,17.99
2022-10-31T18:13:08.352Z,18.00
2022-10-31T18:15:36.113Z,18.03
2022-10-31T18:18:05.005Z,18.04
2022-10-31T18:20:34.005Z,18.02
2022-10-31T18:23:02.360Z,18.02
2022-10-31T18:25:30.202Z,18.01
2022-10-31T18:27:58.357Z,17.98
2022-10-31T18:30:26.367Z,17.98
2022-10-31T18:32:58.647Z,17.95
2022-10-31T18:35:27.010Z,17.93
2022-10-31T18:37:56.077Z,17.92
2022-10-31T18:40:25.973Z,17.87
2022-10-31T18:42:53.723Z,17.77
2022-10-31T18:45:33.964Z,17.66
2022-10-31T18:48:11.794Z,17.48
2022-10-31T18:50:39.645Z,17.33
2022-10-31T18:53:07.896Z,17.15
2022-10-31T18:55:38.840Z,16.98
2022-10-31T18:58:06.574Z,16.83
2022-10-31T19:00:34.748Z,16.68
2022-10-31T19:03:02.799Z,16.64
2022-10-31T19:05:30.852Z,16.64
2022-10-31T19:07:58.779Z,16.67
2022-10-31T19:10:26.637Z,16.70
2022-10-31T19:12:54.485Z,16.71
2022-10-31T19:15:22.854Z,16.68
2022-10-31T19:17:51.019Z,16.67
2022-10-31T19:20:18.834Z,16.65
2022-10-31T19:22:46.661Z,16.66
2022-10-31T19:25:15.064Z,16.68
2022-10-31T19:27:42.977Z,16.67
2022-10-31T19:30:10.794Z,16.63
2022-10-31T19:32:38.918Z,16.56
2022-10-31T19:35:09.295Z,16.50
2022-10-31T19:37:37.539Z,16.45
2022-10-31T19:40:05.448Z,16.49
2022-10-31T19:42:33.409Z,16.56
2022-10-31T19:45:02.201Z,16.59
2022-10-31T19:47:30.211Z,16.59
2022-10-31T19:49:58.422Z,16.62
2022-10-31T19:52:26.369Z,16.65
2022-10-31T19:54:54.406Z,16.73
2022-10-31T19:57:48.415Z,16.81
2022-10-31T20:00:10.580Z,16.88
2022-10-31T20:02:38.328Z,16.96
2022-10-31T20:05:06.303Z,17.01
2022-10-31T20:07:34.223Z,17.05
2022-10-31T20:10:02.121Z,17.10
2022-10-31T20:12:30.207Z,17.15
2022-10-31T20:14:58.089Z,17.24
2022-10-31T20:17:26.308Z,17.33
2022-10-31T20:19:54.279Z,17.40
2022-10-31T20:22:22.299Z,17.44
2022-10-31T20:24:50.769Z,17.48
2022-10-31T20:27:18.587Z,17.53
2022-10-31T20:29:46.409Z,17.55
2022-10-31T20:32:14.262Z,17.55
2022-10-31T20:34:42.340Z,17.54
2022-10-31T20:37:10.286Z,17.55
2022-10-31T20:39:38.189Z,17.56
2022-10-31T20:42:05.974Z,17.59
2022-10-31T20:44:34.715Z,17.61
2022-10-31T20:47:02.532Z,17.60
2022-10-31T20:49:30.843Z,17.64
2022-10-31T20:51:58.751Z,17.64
2022-10-31T20:54:26.679Z,17.65
2022-10-31T20:56:54.664Z,17.67
2022-10-31T20:59:22.846Z,17.66
2022-10-31T21:01:51.148Z,17.67
2022-10-31T21:04:19.065Z,17.65
2022-10-31T21:06:49.612Z,17.63
2022-10-31T21:09:17.980Z,17.63
2022-10-31T21:11:45.850Z,17.62
2022-10-31T21:14:14.383Z,17.62
2022-10-31T21:16:42.195Z,17.67
2022-10-31T21:19:10.085Z,17.71
2022-10-31T21:21:38.286Z,17.71
2022-10-31T21:24:06.045Z,17.74
2022-10-31T21:26:34.590Z,17.77
2022-10-31T21:29:02.802Z,17.76
2022-10-31T21:31:30.767Z,17.75
2022-10-31T21:33:58.890Z,17.75
2022-10-31T21:36:27.036Z,17.77
2022-10-31T21:38:54.821Z,17.77
2022-10-31T21:41:22.575Z,17.80
2022-10-31T21:43:50.388Z,17.80
2022-10-31T21:46:19.923Z,17.83
2022-10-31T21:48:47.605Z,17.84
2022-10-31T21:51:15.801Z,17.85
2022-10-31T21:54:00.927Z,17.88
2022-10-31T21:56:29.405Z,17.87
2022-10-31T21:58:57.054Z,17.86
2022-10-31T22:01:25.632Z,17.87
2022-10-31T22:03:53.816Z,17.93
2022-10-31T22:06:21.580Z,17.92
2022-10-31T22:08:49.377Z,17.94
2022-10-31T22:11:17.186Z,17.93
2022-10-31T22:13:45.191Z,17.92
2022-10-31T22:16:12.873Z,17.95
2022-10-31T22:18:40.756Z,18.01
2022-10-31T22:21:08.631Z,18.03
2022-10-31T22:23:36.382Z,18.04
2022-10-31T22:26:04.974Z,18.07
2022-10-31T22:28:32.726Z,18.08
2022-10-31T22:31:00.547Z,18.10
2022-10-31T22:33:29.771Z,18.12
2022-10-31T22:35:57.451Z,18.12
2022-10-31T22:38:25.106Z,18.15
2022-10-31T22:40:52.859Z,18.19
2022-10-31T22:43:20.593Z,18.22
2022-10-31T22:45:49.093Z,18.23
2022-10-31T22:48:17.227Z,18.26
2022-10-31T22:50:45.590Z,18.28
2022-10-31T22:53:15.892Z,18.28
2022-10-31T22:55:43.529Z,18.29
2022-10-31T22:58:11.283Z,18.30
2022-10-31T23:00:38.963Z,18.32
2022-10-31T23:03:07.066Z,18.33
2022-10-31T23:05:34.666Z,18.34
2022-10-31T23:08:02.604Z,18.35
2022-10-31T23:10:35.042Z,18.36
2022-10-31T23:13:20.423Z,18.36
2022-10-31T23:15:48.079Z,18.37
2022-10-31T23:18:30.145Z,18.39
2022-10-31T23:21:03.499Z,18.45
2022-10-31T23:23:31.360Z,18.51
2022-10-31T23:26:16.332Z,18.57
2022-10-31T23:28:43.942Z,18.62
2022-10-31T23:31:11.954Z,18.65
2022-10-31T23:33:39.906Z,18.72
2022-10-31T23:36:07.533Z,18.75
2022-10-31T23:38:35.559Z,18.80
2022-10-31T23:41:03.210Z,18.81
2022-10-31T23:43:30.825Z,18.79
2022-10-31T23:45:58.752Z,18.82
2022-10-31T23:48:26.414Z,18.79
2022-10-31T23:50:54.026Z,18.79
2022-10-31T23:53:22.281Z,18.80
2022-10-31T23:55:53.050Z,18.77
2022-10-31T23:58:21.035Z,18.75
